Terminal Aerodrome Forecast
Issued by NWS Caribou, ME

Home | Current Version | Previous Version | Text Only | Print | Product List | Glossary On
Versions: 1 2 3 4 5 6 7 8 9 10 11 12 13 14
000
FTUS41 KCAR 161700
TAFBGR
TAF
KBGR 161720Z 1618/1718 21006KT P6SM VCSH BKN040
     FM170000 VRB03KT P6SM FEW050 SCT100
     FM170500 00000KT 3SM BR SCT250
     FM171100 24004KT P6SM SCT150=

USA.gov is the U.S. government's official web portal to all federal, state and local government web resources and services.